• Join FlightAware (Why Join?)
  • Login
  • US Flag 
09:39AM EST


 

Airport Tracker/Info


-or-


 

Live Flight TrackerFlight Track Log ✈ EJA922 ✈ 30-Jul-2013 ✈ KPBI - KPDK

Flight Track Log - Related Links

Times and Time Zones

All times are in EDT time to prevent confusion due to time zone crossing. See the EJA922 flight status page for this flight to view local times or setup timezone preferences in your user account.

Time Position Orientation Groundspeed Altitude Reporting Facility
EDT Latitude Longitude Course Direction KTS MPH feet Rate Location/Type
03:06PM 26.6803 -80.0606 336° Northwest 182 209 2,100  Level Miami Center
03:07PM 26.6958 -80.0144 69° East 242 278 5,900 3,780 Climbing Miami Center
03:08PM 26.7636 -80.0628 328° Northwest 304 350 9,700 2,340 Climbing Miami Center
03:09PM 26.7972 -80.1497 293° West 339 390 10,600 1,140 Climbing Miami Center
03:10PM 26.8406 -80.2672 292° West 366 421 12,000 1,200 Climbing Miami Center
03:11PM 26.9031 -80.3553 309° West 361 415 13,000 1,260 Climbing Miami Center
03:12PM 27.0503 -80.4168 336° Northwest  Level FlightAware Approximate
03:12PM 27.0000 -80.4119 332° Northwest 367 422 14,600  Level Miami Center
03:13PM 27.0928 -80.4636 334° Northwest 397 457 16,300 1,620 Climbing Miami Center
03:14PM 27.1933 -80.5253 331° Northwest 411 473 17,900 1,800 Climbing Miami Center
03:15PM 27.3044 -80.5894 333° Northwest 411 473 20,000 1,920 Climbing Miami Center
03:16PM 27.4072 -80.6514 332° Northwest 411 473 21,800 1,800 Climbing Miami Center
03:17PM 27.4978 -80.7011 334° Northwest 404 465 23,700 1,680 Climbing Miami Center
03:18PM 27.6006 -80.7631 332° Northwest 409 471 25,200 1,500 Climbing Miami Center
03:19PM 27.7033 -80.8253 332° Northwest 417 480 26,700 1,680 Climbing Miami Center
03:20PM 27.8181 -80.8950 332° Northwest 412 474 28,600 1,740 Climbing Miami Center
03:21PM 27.9228 -80.9575 332° Northwest 418 481 30,200 1,500 Climbing Miami Center
03:22PM 28.0275 -81.0222 331° Northwest 418 481 31,600 1,260 Climbing Miami Center
03:23PM 28.1383 -81.0875 333° Northwest 430 495 32,800 1,140 Climbing Miami Center
03:24PM 28.2386 -81.1528 330° Northwest 441 507 33,900 1,080 Climbing Miami Center
03:25PM 28.3614 -81.2281 332° Northwest 451 519 35,000 540 Climbing Miami Center
03:26PM 28.4867 -81.2992 333° Northwest 464 534 35,000  Level Miami Center
03:27PM 28.6181 -81.3611 338° Northwest 487 560 35,000  Level Miami Center
03:28PM 28.7544 -81.4067 344° North 507 583 35,000 660 Level Miami Center
03:29PM 28.9058 -81.4553 344° North 488 562 36,500 1,020 Climbing Jacksonville Center
03:30PM 29.0478 -81.4675 356° North 482 555 37,400 960 Climbing Jacksonville Center
03:31PM 29.1811 -81.4442 North 470 541 38,500 780 Climbing Jacksonville Center
03:32PM 29.3103 -81.4281 North 470 541 39,000 240 Climbing Jacksonville Center
03:33PM 29.4417 -81.4069 North 475 547 39,000  Level Jacksonville Center
03:34PM 29.5664 -81.3619 17° North 477 549 39,000  Level Jacksonville Center
03:35PM 29.6953 -81.3264 13° North 472 543 39,000  Level Jacksonville Center
03:36PM 29.8269 -81.3458 353° North 466 536 39,000  Level Jacksonville Center
03:37PM 29.9531 -81.4086 337° Northwest 460 529 39,000  Level Jacksonville Center
03:38PM 30.0750 -81.4739 335° Northwest 467 537 39,000  Level Jacksonville Center
03:39PM 30.1861 -81.5350 335° Northwest 478 550 39,000  Level Jacksonville Center
03:40PM 30.3036 -81.5886 339° North 478 550 39,000  Level Jacksonville Center
03:41PM 30.4311 -81.6014 355° North 463 533 39,000  Level Jacksonville Center
03:42PM 30.5569 -81.6381 346° North 456 525 39,000  Level Jacksonville Center
03:43PM 30.6703 -81.7189 328° Northwest 456 525 39,000  Level Jacksonville Center
03:44PM 30.7878 -81.7900 333° Northwest 468 539 39,000  Level Jacksonville Center
03:45PM 30.9053 -81.8586 333° Northwest 473 544 39,000  Level Jacksonville Center
03:46PM 31.0269 -81.9300 333° Northwest 473 544 39,000 -240 Level Jacksonville Center
03:47PM 31.1406 -82.0164 327° Northwest 478 550 38,600 -780 Descending Jacksonville Center
03:48PM 31.2392 -82.1175 319° Northwest 478 550 37,500 -1,140 Descending Jacksonville Center
03:49PM 31.3567 -82.1894 332° Northwest 483 556 36,400 -1,320 Descending Jacksonville Center
03:50PM 31.4800 -82.2567 335° Northwest 478 550 34,900 -1,260 Descending Jacksonville Center
03:52PM 31.7144 -82.3764 337° Northwest 472 543 33,000 -720 Descending Atlanta Center
03:53PM 31.8428 -82.4425 336° Northwest 489 563 33,000  Level Atlanta Center
03:54PM 31.9731 -82.5136 335° Northwest 499 574 33,000  Level Atlanta Center
03:55PM 32.1011 -82.5825 336° Northwest 504 580 33,000 -600 Level Atlanta Center
03:56PM 32.2292 -82.6517 335° Northwest 504 580 31,900 -1,200 Descending Atlanta Center
03:57PM 32.3594 -82.7208 336° Northwest 504 580 30,700 -1,200 Descending Atlanta Center
03:58PM 32.4917 -82.7953 335° Northwest 504 580 29,500 -1,200 Descending Atlanta Center
03:59PM 32.6094 -82.8800 329° Northwest 498 573 28,300 -1,500 Descending Atlanta Center
04:00PM 32.7211 -82.9894 321° Northwest 508 585 26,500 -1,800 Descending Atlanta Center
04:01PM 32.8242 -83.0944 319° Northwest 508 585 24,700 -1,980 Descending Atlanta Center
04:02PM 32.9250 -83.1950 320° Northwest 491 565 22,600 -2,340 Descending Atlanta Center
04:03PM 33.0239 -83.2956 320° Northwest 476 548 20,100 -2,400 Descending Atlanta Center
04:04PM 33.1161 -83.3914 319° Northwest 452 520 17,800 -2,280 Descending Atlanta Center
04:05PM 33.2044 -83.4853 318° Northwest 436 502 15,600 -2,280 Descending Atlanta Center
04:06PM 33.2944 -83.5742 320° Northwest 431 496 13,300 -2,160 Descending Atlanta Center
04:07PM 33.3742 -83.6558 319° Northwest 397 457 11,300 -1,500 Descending Atlanta Center
04:08PM 33.4431 -83.7053 329° Northwest 326 375 10,300 -1,200 Descending Atlanta Center
04:09PM 33.5206 -83.7397 340° North 287 330 8,900 -1,380 Descending Atlanta Center
04:10PM 33.5936 -83.7794 336° Northwest 282 325 7,600 -1,380 Descending Atlanta Center
04:11PM 33.6647 -83.8117 339° North 277 319 6,200 -1,320 Descending Atlanta Center
04:12PM 33.7397 -83.8189 355° North 271 312 5,000 -1,140 Descending Atlanta Center
04:13PM 33.8086 -83.8389 346° North 256 295 4,000 -540 Descending Atlanta Center
04:14PM 33.8172 -83.9089 278° West 201 231 4,000 -480 Level Atlanta Center
04:15PM 33.8256 -83.9714 279° West 195 224 3,100 -540 Descending Atlanta Center
04:16PM 33.8319 -84.0389 277° West 205 236 3,000 -60 Descending Atlanta Center
04:18PM 33.8500 -84.1500 281° West 216 249 3,000 -120 Level Atlanta TRACON
04:19PM 33.8500 -84.2167 270° West 204 235 2,700 -480 Descending Atlanta TRACON
04:20PM 33.8333 -84.2667 248° West 161 185 2,000 -600 Descending Atlanta TRACON
04:21PM 33.8333 -84.3167 270° West 167 192 1,600 -420 Descending Atlanta TRACON
04:23PM 33.8667 -84.3000 220° Southwest  Level FlightAware Approximate
04:30PM 33.8756 -84.3020 220° Southwest  Level Estimated